Terminal Aerodrome Forecast
Issued by NWS Wilmington, OH

Current Version | Previous Version | Graphics & Text | Print | Product List | Glossary On
Versions: 1 2 3 4 5 6 7 8 9 10 11 12 13 14 15 16 17 18 19 20 21 22 23 24 25
000
FTUS41 KILN 040537
TAFDAY
TAF
KDAY 040537Z 0406/0506 23006KT P6SM FEW150
     FM040800 23009KT P6SM OVC080
     FM041500 24014G22KT 4SM -SHRA OVC040
     FM041800 24014G22KT 4SM -SHRA BR VCTS SCT015 OVC025CB
     FM042100 32014KT P6SM VCSH BKN015 OVC022
     FM050100 33012KT P6SM VCSH OVC015=

USA.gov is the U.S. government's official web portal to all federal, state and local government web resources and services.